SBTT/TBT METAR and TAF weather

Enter ICAO airport designator
Station Type Date Time Source
SBTT METAR 2018/12/10 13:00 UTC NOAA

SBTT 101300Z 10004KT 9999 FEW009 SCT090 27/23 Q1015


Station Type Date Time Source
SBTT Decoded METAR 2018/12/10 13:00 UTC NOAA

Tabatinga, Brazil (SBTT) 03-40S 069-40W
Dec 10, 2018 - 08:00 AM EST / 2018.12.10 1300 UTC
Wind: from the E (100 degrees) at 5 MPH (4 KT):0
Visibility: greater than 7 mile(s):0
Sky conditions: partly cloudy
Temperature: 80 F (27 C)
Dew Point: 73 F (23 C)
Relative Humidity: 78%
Pressure (altimeter): 29.97 in. Hg (1015 hPa)
ob: SBTT 101300Z 10004KT 9999 FEW009 SCT090 27/23 Q1015
cycle: 13

Station Type Date Time Source
SBTT TAF 2018/12/10 12:43 UTC NOAA

TAF SBTT 101000Z 1012/1112 36003KT 9999 FEW005 TX30/1018Z TN24/1110Z
BECMG 1015/1017 33005KT SCT020
BECMG 1022/1024 00000KT
RMK PEH


Example: see airport list